createdAt,value
2022-10-11T00:00:54.768Z,100381.75
2022-10-11T00:03:22.826Z,100385.47
2022-10-11T00:05:50.434Z,100380.97
2022-10-11T00:08:17.944Z,100380.72
2022-10-11T00:10:45.529Z,100379.47
2022-10-11T00:13:14.129Z,100373.63
2022-10-11T00:15:41.925Z,100378.81
2022-10-11T00:18:09.557Z,100376.56
2022-10-11T00:20:37.537Z,100381.19
2022-10-11T00:23:05.103Z,100373.75
2022-10-11T00:25:33.040Z,100381.72
2022-10-11T00:28:00.569Z,100372.72
2022-10-11T00:30:28.221Z,100378.97
2022-10-11T00:32:56.047Z,100380.31
2022-10-11T00:35:23.713Z,100380.00
2022-10-11T00:37:51.484Z,100377.22
2022-10-11T00:40:22.153Z,100373.56
2022-10-11T00:42:49.764Z,100368.28
2022-10-11T00:45:32.578Z,100369.84
2022-10-11T00:48:14.694Z,100367.50
2022-10-11T00:50:43.178Z,100362.53
2022-10-11T00:53:12.588Z,100346.84
2022-10-11T00:55:53.348Z,100356.50
2022-10-11T00:58:24.189Z,100354.47
2022-10-11T01:00:52.084Z,100350.88
2022-10-11T01:03:22.369Z,100346.69
2022-10-11T01:05:50.026Z,100343.72
2022-10-11T01:08:17.531Z,100346.97
2022-10-11T01:10:45.667Z,100346.06
2022-10-11T01:13:48.342Z,100344.06
2022-10-11T01:16:44.126Z,100337.44
2022-10-11T01:19:20.591Z,100337.22
2022-10-11T01:22:23.613Z,100339.59
2022-10-11T01:25:12.960Z,100331.84
2022-10-11T01:28:18.525Z,100331.84
2022-10-11T01:30:47.129Z,100331.59
2022-10-11T01:33:57.325Z,100328.75
2022-10-11T01:36:34.613Z,100331.25
2022-10-11T01:39:18.720Z,100337.38
2022-10-11T01:41:54.822Z,100334.97
2022-10-11T01:44:25.215Z,100337.66
2022-10-11T01:46:54.043Z,100332.81
2022-10-11T01:49:21.978Z,100325.84
2022-10-11T01:51:54.006Z,100328.16
2022-10-11T01:55:08.090Z,100334.53
2022-10-11T01:57:59.763Z,100333.28
2022-10-11T02:01:00.488Z,100323.47
2022-10-11T02:04:01.800Z,100317.44
2022-10-11T02:06:40.843Z,100326.28
2022-10-11T02:09:37.903Z,100319.16
2022-10-11T02:12:13.057Z,100325.38
2022-10-11T02:14:47.951Z,100320.22
2022-10-11T02:17:20.824Z,100322.41
2022-10-11T02:19:53.739Z,100317.13
2022-10-11T02:22:33.951Z,100318.81
2022-10-11T02:25:07.770Z,100311.72
2022-10-11T02:27:39.222Z,100315.28
2022-10-11T02:30:12.208Z,100318.38
2022-10-11T02:32:44.124Z,100316.66
2022-10-11T02:35:13.345Z,100311.03
2022-10-11T02:37:59.724Z,100317.88
2022-10-11T02:40:33.178Z,100320.69
2022-10-11T02:43:13.010Z,100315.72
2022-10-11T02:45:51.374Z,100307.63
2022-10-11T02:48:19.724Z,100320.66
2022-10-11T02:50:48.090Z,100328.63
2022-10-11T02:53:15.623Z,100317.75
2022-10-11T02:55:43.103Z,100317.25
2022-10-11T02:58:10.597Z,100317.38
2022-10-11T03:00:38.080Z,100313.44
2022-10-11T03:03:05.589Z,100311.56
2022-10-11T03:05:37.325Z,100305.19
2022-10-11T03:08:04.885Z,100307.69
2022-10-11T03:10:33.894Z,100306.31
2022-10-11T03:13:02.173Z,100305.88
2022-10-11T03:15:30.132Z,100307.91
2022-10-11T03:17:57.721Z,100310.25
2022-10-11T03:20:26.214Z,100306.31
2022-10-11T03:22:54.647Z,100310.34
2022-10-11T03:25:22.174Z,100305.59
2022-10-11T03:27:49.975Z,100304.28
2022-10-11T03:30:18.471Z,100306.91
2022-10-11T03:32:46.220Z,100300.47
2022-10-11T03:35:13.786Z,100308.31
2022-10-11T03:37:41.523Z,100305.34
2022-10-11T03:40:10.153Z,100302.44
2022-10-11T03:42:38.204Z,100306.00
2022-10-11T03:45:08.992Z,100311.69
2022-10-11T03:47:38.751Z,100313.38
2022-10-11T03:50:08.833Z,100305.66
2022-10-11T03:52:38.934Z,100306.13
2022-10-11T03:55:07.433Z,100299.13
2022-10-11T03:57:35.136Z,100293.13
2022-10-11T04:00:02.866Z,100304.97
2022-10-11T04:02:36.972Z,100300.69
2022-10-11T04:05:07.785Z,100301.41
2022-10-11T04:07:38.586Z,100299.34
2022-10-11T04:10:07.281Z,100296.81
2022-10-11T04:12:36.845Z,100297.50
2022-10-11T04:15:05.762Z,100296.25
2022-10-11T04:17:34.455Z,100289.25
2022-10-11T04:20:02.076Z,100296.22
2022-10-11T04:22:29.687Z,100292.34
2022-10-11T04:24:57.364Z,100294.97
2022-10-11T04:27:27.312Z,100298.75
2022-10-11T04:29:55.191Z,100301.38
2022-10-11T04:32:22.830Z,100299.00
2022-10-11T04:34:51.384Z,100306.66
2022-10-11T04:37:19.663Z,100301.72
2022-10-11T04:39:47.247Z,100302.34
2022-10-11T04:42:14.717Z,100305.06
2022-10-11T04:44:42.280Z,100303.34
2022-10-11T04:47:09.764Z,100309.72
2022-10-11T04:49:37.295Z,100308.38
2022-10-11T04:52:05.023Z,100315.88
2022-10-11T04:54:32.674Z,100315.00
2022-10-11T04:57:00.178Z,100310.03
2022-10-11T04:59:29.105Z,100312.38
2022-10-11T05:01:56.871Z,100311.38
2022-10-11T05:04:24.613Z,100306.31
2022-10-11T05:06:52.201Z,100308.88
2022-10-11T05:09:20.138Z,100305.50
2022-10-11T05:11:47.730Z,100310.81
2022-10-11T05:14:15.357Z,100316.38
2022-10-11T05:16:42.832Z,100319.47
2022-10-11T05:19:10.595Z,100316.28
2022-10-11T05:21:38.635Z,100323.44
2022-10-11T05:24:07.072Z,100325.75
2022-10-11T05:26:34.793Z,100326.72
2022-10-11T05:29:02.722Z,100324.59
2022-10-11T05:31:30.493Z,100329.06
2022-10-11T05:33:58.110Z,100319.63
2022-10-11T05:36:25.736Z,100318.22
2022-10-11T05:38:53.207Z,100317.59
2022-10-11T05:41:20.783Z,100322.25
2022-10-11T05:43:48.239Z,100322.88
2022-10-11T05:46:16.158Z,100321.19
2022-10-11T05:48:43.737Z,100325.50
2022-10-11T05:51:12.738Z,100323.75
2022-10-11T05:53:40.724Z,100328.84
2022-10-11T05:56:21.006Z,100333.56
2022-10-11T05:58:48.668Z,100329.84
2022-10-11T06:01:26.859Z,100323.09
2022-10-11T06:03:55.908Z,100320.69
2022-10-11T06:06:24.623Z,100322.66
2022-10-11T06:08:52.164Z,100332.16
2022-10-11T06:11:25.381Z,100333.06
2022-10-11T06:14:00.425Z,100331.91
2022-10-11T06:16:30.614Z,100332.97
2022-10-11T06:18:58.393Z,100327.91
2022-10-11T06:21:26.143Z,100333.78
2022-10-11T06:23:59.871Z,100331.03
2022-10-11T06:26:29.861Z,100335.72
2022-10-11T06:28:57.716Z,100333.66
2022-10-11T06:31:25.492Z,100335.72
2022-10-11T06:33:52.973Z,100340.66
2022-10-11T06:36:20.461Z,100344.78
2022-10-11T06:38:51.014Z,100346.97
2022-10-11T06:41:26.582Z,100353.63
2022-10-11T06:43:54.289Z,100351.59
2022-10-11T06:46:25.238Z,100357.56
2022-10-11T06:48:56.199Z,100361.44
2022-10-11T06:51:24.897Z,100356.00
2022-10-11T06:53:55.909Z,100344.75
2022-10-11T06:56:29.674Z,100353.88
2022-10-11T06:58:59.476Z,100355.56
2022-10-11T07:01:27.848Z,100347.13
2022-10-11T07:03:58.031Z,100348.84
2022-10-11T07:06:29.032Z,100350.16
2022-10-11T07:08:57.508Z,100354.09
2022-10-11T07:11:28.178Z,100353.25
2022-10-11T07:14:03.017Z,100350.66
2022-10-11T07:16:31.383Z,100351.44
2022-10-11T07:19:01.824Z,100352.94
2022-10-11T07:21:31.430Z,100355.63
2022-10-11T07:23:59.753Z,100359.56
2022-10-11T07:26:33.730Z,100360.88
2022-10-11T07:29:08.851Z,100354.91
2022-10-11T07:31:40.652Z,100358.53
2022-10-11T07:34:09.151Z,100356.09
2022-10-11T07:36:37.389Z,100350.59
2022-10-11T07:39:07.338Z,100353.34
2022-10-11T07:41:38.838Z,100346.97
2022-10-11T07:44:08.494Z,100348.47
2022-10-11T07:46:35.925Z,100354.13
2022-10-11T07:49:03.531Z,100351.94
2022-10-11T07:51:30.979Z,100356.88
2022-10-11T07:54:00.510Z,100350.06
2022-10-11T07:56:32.003Z,100358.56
2022-10-11T07:59:03.653Z,100343.97
2022-10-11T08:01:32.499Z,100343.84
2022-10-11T08:04:00.606Z,100347.53
2022-10-11T08:06:32.799Z,100340.66
2022-10-11T08:09:02.045Z,100334.88
2022-10-11T08:11:34.190Z,100335.28
2022-10-11T08:14:05.204Z,100332.69
2022-10-11T08:16:33.302Z,100339.44
2022-10-11T08:19:03.125Z,100337.41
2022-10-11T08:21:45.965Z,100329.69
2022-10-11T08:24:14.120Z,100330.75
2022-10-11T08:26:42.897Z,100322.44
2022-10-11T08:29:10.603Z,100320.59
2022-10-11T08:31:38.107Z,100318.56
2022-10-11T08:34:05.621Z,100320.78
2022-10-11T08:36:33.562Z,100320.97
2022-10-11T08:39:04.604Z,100331.03
2022-10-11T08:41:42.643Z,100333.03
2022-10-11T08:44:46.112Z,100325.63
2022-10-11T08:47:32.660Z,100322.19
2022-10-11T08:50:02.727Z,100320.06
2022-10-11T08:53:02.968Z,100313.53
2022-10-11T08:55:46.130Z,100318.59
2022-10-11T08:58:23.202Z,100311.03
2022-10-11T09:00:56.210Z,100321.13
2022-10-11T09:03:54.790Z,100321.63
2022-10-11T09:06:27.571Z,100322.63
2022-10-11T09:09:06.857Z,100317.75
2022-10-11T09:11:55.820Z,100317.81
2022-10-11T09:14:47.467Z,100320.72
2022-10-11T09:17:32.927Z,100321.19
2022-10-11T09:20:19.190Z,100309.66
2022-10-11T09:23:20.761Z,100309.91
2022-10-11T09:26:02.728Z,100302.75
2022-10-11T09:29:11.564Z,100302.47
2022-10-11T09:31:39.269Z,100311.59
2022-10-11T09:34:14.237Z,100309.66
2022-10-11T09:36:46.771Z,100315.22
2022-10-11T09:39:35.629Z,100304.59
2022-10-11T09:42:10.236Z,100300.88
2022-10-11T09:44:57.429Z,100302.97
2022-10-11T09:47:33.025Z,100297.41
2022-10-11T09:50:18.024Z,100282.88
2022-10-11T09:52:51.661Z,100284.81
2022-10-11T09:56:02.881Z,100291.41
2022-10-11T09:58:34.793Z,100280.69
2022-10-11T10:01:08.536Z,100284.84
2022-10-11T10:03:43.240Z,100287.53
2022-10-11T10:06:17.520Z,100272.88
2022-10-11T10:08:47.315Z,100276.75
2022-10-11T10:11:15.980Z,100272.94
2022-10-11T10:13:52.111Z,100274.78
2022-10-11T10:16:39.951Z,100261.00
2022-10-11T10:19:25.088Z,100262.41
2022-10-11T10:21:56.449Z,100252.00
2022-10-11T10:24:40.376Z,100252.56
2022-10-11T10:27:26.614Z,100251.47
2022-10-11T10:30:15.975Z,100253.06
2022-10-11T10:33:16.922Z,100242.31
2022-10-11T10:36:06.484Z,100234.03
2022-10-11T10:38:43.193Z,100232.66
2022-10-11T10:41:13.945Z,100230.03
2022-10-11T10:43:52.833Z,100231.22
2022-10-11T10:47:06.611Z,100228.97
2022-10-11T10:50:04.316Z,100227.25
2022-10-11T10:53:06.019Z,100228.78
2022-10-11T10:56:24.042Z,100219.22
2022-10-11T10:59:03.627Z,100221.72
2022-10-11T11:01:45.450Z,100210.94
2022-10-11T11:04:34.437Z,100221.06
2022-10-11T11:07:35.405Z,100206.84
2022-10-11T11:10:29.444Z,100207.41
2022-10-11T11:13:08.829Z,100209.72
2022-10-11T11:16:22.717Z,100203.03
2022-10-11T11:19:05.428Z,100199.28
2022-10-11T11:21:56.943Z,100203.88
2022-10-11T11:24:58.520Z,100198.13
2022-10-11T11:27:37.743Z,100198.81
2022-10-11T11:30:10.730Z,100190.72
2022-10-11T11:33:01.203Z,100187.09
2022-10-11T11:35:43.054Z,100182.00
2022-10-11T11:38:42.871Z,100180.25
2022-10-11T11:41:41.277Z,100173.31
2022-10-11T11:44:27.112Z,100166.72
2022-10-11T11:47:11.904Z,100161.03
2022-10-11T11:49:48.721Z,100161.50
2022-10-11T11:52:35.300Z,100167.47
2022-10-11T11:55:16.959Z,100160.91
2022-10-11T11:58:07.258Z,100161.75
2022-10-11T12:00:58.387Z,100159.66
2022-10-11T12:03:32.254Z,100159.06
2022-10-11T12:06:14.778Z,100168.38
2022-10-11T12:08:47.560Z,100159.94
2022-10-11T12:11:31.687Z,100161.31
2022-10-11T12:14:04.656Z,100161.88
2022-10-11T12:16:33.152Z,100163.25
2022-10-11T12:19:03.840Z,100157.97
2022-10-11T12:21:39.453Z,100155.44
2022-10-11T12:24:24.118Z,100156.16
2022-10-11T12:26:58.717Z,100152.06
2022-10-11T12:29:50.173Z,100163.31
2022-10-11T12:32:35.909Z,100158.91
2022-10-11T12:35:31.686Z,100158.53
2022-10-11T12:38:13.607Z,100148.31
2022-10-11T12:40:43.069Z,100144.16
2022-10-11T12:43:30.765Z,100149.75
2022-10-11T12:46:15.767Z,100148.75
2022-10-11T12:49:17.846Z,100152.41
2022-10-11T12:52:16.193Z,100145.47
2022-10-11T12:55:37.335Z,100146.13
2022-10-11T12:58:38.835Z,100143.75
2022-10-11T13:01:23.080Z,100157.16
2022-10-11T13:04:04.158Z,100153.09
2022-10-11T13:06:57.155Z,100141.94
2022-10-11T13:09:39.398Z,100144.25
2022-10-11T13:12:24.173Z,100149.44
2022-10-11T13:15:09.758Z,100151.75
2022-10-11T13:17:39.567Z,100142.88
2022-10-11T13:20:20.762Z,100142.50
2022-10-11T13:22:53.140Z,100138.00
2022-10-11T13:25:25.157Z,100148.38
2022-10-11T13:28:16.752Z,100147.88
2022-10-11T13:30:52.384Z,100145.75
2022-10-11T13:33:32.213Z,100141.88
2022-10-11T13:36:03.983Z,100142.81
2022-10-11T13:38:36.900Z,100149.47
2022-10-11T13:41:08.687Z,100149.38
2022-10-11T13:43:37.446Z,100145.53
2022-10-11T13:46:05.790Z,100140.00
2022-10-11T13:48:41.275Z,100146.22
2022-10-11T13:51:30.302Z,100144.59
2022-10-11T13:54:05.773Z,100141.97
2022-10-11T13:56:46.657Z,100132.88
2022-10-11T13:59:24.251Z,100137.72
2022-10-11T14:01:59.014Z,100133.94
2022-10-11T14:04:29.768Z,100129.94
2022-10-11T14:07:03.167Z,100144.31
2022-10-11T14:09:38.051Z,100137.81
2022-10-11T14:12:33.580Z,100136.47
2022-10-11T14:15:03.203Z,100136.34
2022-10-11T14:17:48.885Z,100129.41
2022-10-11T14:20:24.081Z,100133.50
2022-10-11T14:22:53.255Z,100123.09
2022-10-11T14:25:22.094Z,100115.78
2022-10-11T14:27:51.245Z,100119.91
2022-10-11T14:30:27.299Z,100124.84
2022-10-11T14:33:01.555Z,100123.28
2022-10-11T14:35:33.045Z,100118.59
2022-10-11T14:38:01.090Z,100115.03
2022-10-11T14:40:31.555Z,100120.38
2022-10-11T14:43:02.110Z,100108.13
2022-10-11T14:45:29.591Z,100110.84
2022-10-11T14:47:57.371Z,100111.00
2022-10-11T14:50:43.592Z,100110.69
2022-10-11T14:53:12.131Z,100113.69
2022-10-11T14:55:40.900Z,100111.38
2022-10-11T14:58:10.947Z,100108.06
2022-10-11T15:00:43.170Z,100120.06
2022-10-11T15:03:13.986Z,100108.94
2022-10-11T15:05:42.073Z,100110.84
2022-10-11T15:08:09.820Z,100112.97
2022-10-11T15:10:40.533Z,100108.03
2022-10-11T15:13:09.397Z,100100.34
2022-10-11T15:15:40.877Z,100115.69
2022-10-11T15:18:13.044Z,100102.13
2022-10-11T15:20:46.131Z,100108.06
2022-10-11T15:23:25.208Z,100111.75
2022-10-11T15:25:52.902Z,100105.34
2022-10-11T15:28:31.503Z,100109.03
2022-10-11T15:31:00.464Z,100111.50
2022-10-11T15:33:28.095Z,100108.59
2022-10-11T15:35:55.643Z,100109.09
2022-10-11T15:38:25.723Z,100113.06
2022-10-11T15:40:54.274Z,100117.56
2022-10-11T15:43:25.018Z,100116.28
2022-10-11T15:45:59.242Z,100111.22
2022-10-11T15:48:29.245Z,100107.19
2022-10-11T15:51:16.896Z,100108.47
2022-10-11T15:53:45.876Z,100112.50
2022-10-11T15:56:17.921Z,100111.59
2022-10-11T15:58:45.608Z,100115.34
2022-10-11T16:01:19.384Z,100117.75
2022-10-11T16:03:50.351Z,100126.22
2022-10-11T16:06:22.231Z,100130.13
2022-10-11T16:08:50.155Z,100123.13
2022-10-11T16:11:17.781Z,100130.81
2022-10-11T16:13:45.475Z,100138.28
2022-10-11T16:16:14.381Z,100134.81
2022-10-11T16:18:41.944Z,100131.38
2022-10-11T16:21:13.051Z,100132.47
2022-10-11T16:23:41.740Z,100139.47
2022-10-11T16:26:16.993Z,100137.88
2022-10-11T16:28:44.876Z,100130.34
2022-10-11T16:31:18.209Z,100134.22
2022-10-11T16:33:46.435Z,100141.47
2022-10-11T16:36:37.016Z,100134.94
2022-10-11T16:39:18.563Z,100148.53
2022-10-11T16:41:47.927Z,100147.41
2022-10-11T16:44:22.609Z,100150.13
2022-10-11T16:46:51.647Z,100143.72
2022-10-11T16:49:26.714Z,100148.34
2022-10-11T16:52:00.199Z,100156.19
2022-10-11T16:54:30.441Z,100156.88
2022-10-11T16:57:01.825Z,100156.88
2022-10-11T16:59:33.244Z,100164.00
2022-10-11T17:02:03.940Z,100164.75
2022-10-11T17:04:34.464Z,100164.75
2022-10-11T17:07:05.557Z,100162.66
2022-10-11T17:09:44.150Z,100174.09
2022-10-11T17:12:20.940Z,100170.44
2022-10-11T17:14:51.955Z,100162.44
2022-10-11T17:17:47.934Z,100164.94
2022-10-11T17:20:18.150Z,100167.69
2022-10-11T17:22:48.156Z,100164.28
2022-10-11T17:25:18.145Z,100169.75
2022-10-11T17:27:46.084Z,100164.88
2022-10-11T17:30:14.092Z,100167.97
2022-10-11T17:32:42.154Z,100162.91
2022-10-11T17:35:12.892Z,100160.38
2022-10-11T17:37:43.387Z,100167.44
2022-10-11T17:40:11.444Z,100169.53
2022-10-11T17:42:39.243Z,100166.00
2022-10-11T17:45:13.891Z,100167.53
2022-10-11T17:47:41.825Z,100165.56
2022-10-11T17:50:09.763Z,100173.94
2022-10-11T17:52:37.720Z,100177.59
2022-10-11T17:55:05.587Z,100172.41
2022-10-11T17:57:33.913Z,100169.53
2022-10-11T18:00:03.937Z,100165.56
2022-10-11T18:02:53.507Z,100164.44
2022-10-11T18:05:26.481Z,100176.59
2022-10-11T18:07:56.609Z,100171.75
2022-10-11T18:10:25.042Z,100184.00
2022-10-11T18:12:56.845Z,100171.19
2022-10-11T18:15:24.625Z,100178.59
2022-10-11T18:17:52.799Z,100182.66
2022-10-11T18:20:20.739Z,100174.63
2022-10-11T18:22:51.061Z,100176.25
2022-10-11T18:25:19.017Z,100174.06
2022-10-11T18:27:46.819Z,100165.88
2022-10-11T18:30:15.157Z,100171.72
2022-10-11T18:32:44.303Z,100172.38
2022-10-11T18:35:13.556Z,100168.75
2022-10-11T18:37:42.091Z,100174.03
2022-10-11T18:40:13.197Z,100172.84
2022-10-11T18:42:41.750Z,100175.63
2022-10-11T18:45:10.640Z,100183.91
2022-10-11T18:47:41.942Z,100181.25
2022-10-11T18:50:10.837Z,100182.66
2022-10-11T18:52:47.980Z,100180.53
2022-10-11T18:55:49.070Z,100173.06
2022-10-11T18:58:17.125Z,100173.94
2022-10-11T19:00:47.695Z,100180.63
2022-10-11T19:03:16.282Z,100178.56
2022-10-11T19:05:43.751Z,100178.31
2022-10-11T19:08:11.502Z,100183.63
2022-10-11T19:10:39.023Z,100176.09
2022-10-11T19:13:07.181Z,100175.00
2022-10-11T19:15:38.972Z,100179.50
2022-10-11T19:18:06.611Z,100173.00
2022-10-11T19:20:36.664Z,100172.88
2022-10-11T19:23:04.808Z,100182.72
2022-10-11T19:25:37.161Z,100184.03
2022-10-11T19:28:06.516Z,100178.88
2022-10-11T19:30:34.567Z,100173.19
2022-10-11T19:33:04.801Z,100182.72
2022-10-11T19:35:32.339Z,100178.09
2022-10-11T19:38:00.947Z,100190.88
2022-10-11T19:40:30.314Z,100190.31
2022-10-11T19:43:01.106Z,100193.84
2022-10-11T19:45:28.642Z,100193.09
2022-10-11T19:47:59.175Z,100190.97
2022-10-11T19:50:29.312Z,100193.59
2022-10-11T19:52:58.272Z,100202.22
2022-10-11T19:55:28.899Z,100199.59
2022-10-11T19:57:58.755Z,100199.94
2022-10-11T20:00:29.320Z,100197.06
2022-10-11T20:02:58.397Z,100204.16
2022-10-11T20:05:26.443Z,100198.03
2022-10-11T20:07:54.385Z,100198.63
2022-10-11T20:10:22.371Z,100201.47
2022-10-11T20:12:50.025Z,100196.59
2022-10-11T20:15:17.553Z,100200.31
2022-10-11T20:17:48.330Z,100195.13
2022-10-11T20:20:20.855Z,100194.28
2022-10-11T20:22:48.406Z,100189.28
2022-10-11T20:25:16.269Z,100197.56
2022-10-11T20:27:47.074Z,100193.94
2022-10-11T20:30:15.195Z,100193.50
2022-10-11T20:32:43.377Z,100195.25
2022-10-11T20:35:10.934Z,100197.13
2022-10-11T20:37:38.629Z,100196.88
2022-10-11T20:40:06.608Z,100204.50
2022-10-11T20:42:34.238Z,100199.28
2022-10-11T20:45:01.765Z,100205.63
2022-10-11T20:47:29.281Z,100202.53
2022-10-11T20:49:56.875Z,100200.75
2022-10-11T20:52:26.996Z,100202.63
2022-10-11T20:54:54.670Z,100198.31
2022-10-11T20:57:24.758Z,100210.03
2022-10-11T20:59:55.366Z,100203.94
2022-10-11T21:02:23.611Z,100209.78
2022-10-11T21:04:52.154Z,100204.69
2022-10-11T21:07:21.108Z,100207.78
2022-10-11T21:09:48.715Z,100206.81
2022-10-11T21:12:16.207Z,100214.06
2022-10-11T21:14:43.788Z,100215.41
2022-10-11T21:17:12.310Z,100210.13
2022-10-11T21:19:39.860Z,100212.81
2022-10-11T21:22:07.505Z,100211.06
2022-10-11T21:24:35.351Z,100209.19
2022-10-11T21:27:03.020Z,100206.78
2022-10-11T21:29:30.721Z,100217.81
2022-10-11T21:31:58.258Z,100214.53
2022-10-11T21:34:25.754Z,100211.69
2022-10-11T21:36:53.340Z,100209.28
2022-10-11T21:39:20.981Z,100214.63
2022-10-11T21:41:48.585Z,100219.94
2022-10-11T21:44:16.242Z,100230.19
2022-10-11T21:47:07.149Z,100222.28
2022-10-11T21:49:34.076Z,100218.47
2022-10-11T21:52:02.014Z,100223.53
2022-10-11T21:54:29.605Z,100227.94
2022-10-11T21:56:57.084Z,100222.66
2022-10-11T21:59:24.701Z,100225.81
2022-10-11T22:01:55.975Z,100225.56
2022-10-11T22:04:27.035Z,100226.47
2022-10-11T22:06:54.522Z,100225.94
2022-10-11T22:09:22.687Z,100221.81
2022-10-11T22:11:50.146Z,100212.03
2022-10-11T22:14:18.056Z,100223.88
2022-10-11T22:16:45.634Z,100219.41
2022-10-11T22:19:13.148Z,100216.94
2022-10-11T22:21:44.881Z,100210.16
2022-10-11T22:24:13.445Z,100212.69
2022-10-11T22:26:41.007Z,100215.69
2022-10-11T22:29:08.729Z,100221.63
2022-10-11T22:31:36.691Z,100217.00
2022-10-11T22:34:04.497Z,100220.22
2022-10-11T22:36:33.621Z,100217.00
2022-10-11T22:39:01.304Z,100214.38
2022-10-11T22:41:28.805Z,100220.09
2022-10-11T22:43:56.515Z,100218.69
2022-10-11T22:46:23.999Z,100212.50
2022-10-11T22:48:51.488Z,100220.44
2022-10-11T22:51:19.211Z,100219.53
2022-10-11T22:53:46.762Z,100222.97
2022-10-11T22:56:14.289Z,100223.09
2022-10-11T22:58:41.947Z,100231.00
2022-10-11T23:01:12.758Z,100226.53
2022-10-11T23:03:40.827Z,100225.00
2022-10-11T23:06:08.805Z,100234.69
2022-10-11T23:08:36.398Z,100232.78
2022-10-11T23:11:06.130Z,100227.66
2022-10-11T23:13:34.338Z,100234.97
2022-10-11T23:16:08.129Z,100227.69
2022-10-11T23:18:36.417Z,100225.53
2022-10-11T23:21:05.098Z,100230.53
2022-10-11T23:23:32.870Z,100230.81
2022-10-11T23:26:04.509Z,100234.53
2022-10-11T23:28:35.928Z,100229.84
2022-10-11T23:31:12.970Z,100237.59
2022-10-11T23:33:40.840Z,100227.69
2022-10-11T23:36:17.014Z,100238.50
2022-10-11T23:38:45.164Z,100240.50
2022-10-11T23:41:12.818Z,100242.47
2022-10-11T23:43:40.375Z,100241.06
2022-10-11T23:46:07.916Z,100230.22
2022-10-11T23:48:35.480Z,100231.47
2022-10-11T23:51:06.202Z,100228.38
2022-10-11T23:53:34.620Z,100227.03
2022-10-11T23:56:02.336Z,100226.16
2022-10-11T23:58:29.926Z,100233.47
